Time;durP1;ratioP1;P1;durP2;ratioP2;P2;SDS_P1;SDS_P2;PMS_P1;PMS_P2;Temp;Humidity;BMP_temperature;BMP_pressure;BME280_temperature;BME280_humidity;BME280_pressure;Samples;Min_cycle;Max_cycle;Signal;HPM_P1;HPM_P2
2022/08/05 00:00:21;;;;;;;;;5.75;4.50;;;;;24.85;53.99;100763.88;2104182;28;47506;-64
2022/08/05 00:01:22;;;;;;;;;2.25;2.25;;;;;24.80;53.68;100776.09;2104349;28;46175;-65
2022/08/05 00:02:22;;;;;;;;;3.60;2.00;;;;;24.73;53.37;100780.28;2104297;28;48104;-65
2022/08/05 00:03:23;;;;;;;;;3.25;3.25;;;;;24.67;53.27;100792.50;2104557;27;47483;-64
2022/08/05 00:04:23;;;;;;;;;2.00;2.00;;;;;24.63;53.43;100801.84;2104799;27;46992;-65
2022/08/05 00:05:24;;;;;;;;;6.00;6.00;;;;;24.59;53.61;100817.50;2103973;28;47394;-64
2022/08/05 00:06:24;;;;;;;;;4.75;3.00;;;;;24.54;53.85;100830.59;2104181;28;47822;-64
2022/08/05 00:07:25;;;;;;;;;4.00;3.00;;;;;24.51;53.63;100840.78;2104673;28;47074;-64
2022/08/05 00:08:25;;;;;;;;;5.00;3.50;;;;;24.48;54.05;100865.44;2104844;27;47796;-65
2022/08/05 00:09:25;;;;;;;;;2.00;2.00;;;;;24.44;53.83;100910.94;2104549;27;47339;-65
2022/08/05 00:10:26;;;;;;;;;3.50;3.25;;;;;24.41;54.04;100954.59;2105138;27;47181;-64
2022/08/05 00:11:27;;;;;;;;;2.75;2.75;;;;;24.37;53.69;100977.50;2104593;27;46971;-65
2022/08/05 00:12:27;;;;;;;;;3.40;3.40;;;;;24.34;53.58;100978.59;2105144;27;47697;-64
2022/08/05 00:13:36;;;;;;;;;1.50;1.50;;;;;24.30;53.80;100974.41;2104652;27;47426;-63
2022/08/05 00:14:37;;;;;;;;;4.00;2.60;;;;;24.32;53.53;100974.28;2104742;27;47534;-65
2022/08/05 00:15:37;;;;;;;;;4.00;4.00;;;;;24.34;54.17;100991.28;2104986;27;47923;-64
2022/08/05 00:16:37;;;;;;;;;3.00;3.00;;;;;24.32;54.51;101040.25;2104875;27;47335;-64
2022/08/05 00:17:38;;;;;;;;;4.00;2.00;;;;;24.31;53.60;101079.19;2104563;27;47387;-64
2022/08/05 00:18:41;;;;;;;;;2.00;2.00;;;;;24.29;53.44;101088.41;2104980;27;47962;-66
2022/08/05 00:19:41;;;;;;;;;1.80;1.80;;;;;24.25;53.79;101074.16;2104921;27;47505;-64
2022/08/05 00:20:42;;;;;;;;;4.00;4.00;;;;;24.23;53.86;101065.28;2104578;27;47282;-64
2022/08/05 00:21:42;;;;;;;;;2.75;2.75;;;;;24.23;54.03;101077.97;2096151;28;47589;-64
2022/08/05 00:22:43;;;;;;;;;2.50;2.50;;;;;24.24;54.50;101085.13;2096820;28;47459;-64
2022/08/05 00:23:46;;;;;;;;;4.25;4.25;;;;;24.25;54.66;101089.56;2106160;28;47080;-64
2022/08/05 00:24:47;;;;;;;;;2.80;1.80;;;;;24.26;54.40;101077.75;2101955;28;47579;-61
2022/08/05 00:25:48;;;;;;;;;3.00;3.00;;;;;24.24;54.59;101048.03;2106242;27;47274;-63
2022/08/05 00:26:48;;;;;;;;;3.00;3.00;;;;;24.25;53.81;101038.91;2106180;27;48259;-63
2022/08/05 00:27:48;;;;;;;;;2.50;2.00;;;;;24.28;53.90;101040.56;2106077;27;47315;-65
2022/08/05 00:28:49;;;;;;;;;3.00;3.00;;;;;24.30;53.96;101058.47;2105431;28;47167;-65
2022/08/05 00:29:50;;;;;;;;;1.40;1.40;;;;;24.33;53.58;101071.81;2105486;28;47136;-65
2022/08/05 00:30:50;;;;;;;;;2.00;1.50;;;;;24.34;53.18;101097.09;2113994;27;48149;-63
2022/08/05 00:31:51;;;;;;;;;3.50;3.50;;;;;24.34;53.55;101094.38;2114071;27;47496;-64
2022/08/05 00:32:51;;;;;;;;;2.00;2.00;;;;;24.35;53.34;101072.56;2105625;28;47642;-64
2022/08/05 00:33:52;;;;;;;;;3.75;3.75;;;;;24.36;52.84;101052.59;2105431;28;47140;-64
2022/08/05 00:34:52;;;;;;;;;3.00;3.00;;;;;24.35;53.38;101022.84;2105638;28;47675;-64
2022/08/05 00:35:53;;;;;;;;;4.75;4.75;;;;;24.34;53.42;101011.16;2105914;28;47353;-64
2022/08/05 00:36:54;;;;;;;;;3.00;3.00;;;;;24.32;54.06;100991.41;2105301;28;47584;-64
2022/08/05 00:37:54;;;;;;;;;3.50;2.25;;;;;24.33;54.15;100966.00;2105627;28;47452;-64
2022/08/05 00:38:55;;;;;;;;;2.75;2.25;;;;;24.34;53.60;100953.31;2105602;28;46641;-64
2022/08/05 00:39:55;;;;;;;;;4.00;4.00;;;;;24.34;53.81;100978.59;2106266;27;47429;-65
2022/08/05 00:40:58;;;;;;;;;5.25;5.25;;;;;24.35;53.62;101021.00;2106038;28;47649;-65
2022/08/05 00:41:58;;;;;;;;;4.60;4.60;;;;;24.33;54.13;101055.53;2106267;27;47251;-64
2022/08/05 00:43:01;;;;;;;;;2.75;2.75;;;;;24.31;54.00;101070.19;2105997;27;47069;-63
2022/08/05 00:44:01;;;;;;;;;4.00;4.00;;;;;24.29;54.05;101075.69;2106432;27;47486;-64
2022/08/05 00:45:04;;;;;;;;;3.75;3.75;;;;;24.28;53.91;101100.22;2105896;28;47532;-64
2022/08/05 00:46:05;;;;;;;;;4.00;2.00;;;;;24.26;54.21;101115.72;2105493;28;47352;-64
2022/08/05 00:47:05;;;;;;;;;3.50;3.50;;;;;24.22;54.25;101119.63;2105805;28;47809;-64
2022/08/05 00:48:07;;;;;;;;;2.00;2.00;;;;;24.20;54.11;101124.31;2106378;27;47778;-64
2022/08/05 00:49:07;;;;;;;;;1.80;1.60;;;;;24.19;54.44;101107.19;2105830;27;47561;-64
2022/08/05 00:50:08;;;;;;;;;5.50;4.50;;;;;24.21;54.84;101086.22;2105915;27;47294;-64
2022/08/05 00:51:09;;;;;;;;;4.80;3.40;;;;;24.24;54.54;101058.00;2106067;27;47654;-65
2022/08/05 00:52:09;;;;;;;;;2.00;1.75;;;;;24.28;54.49;101032.41;2105969;27;47628;-64
2022/08/05 00:53:10;;;;;;;;;5.25;4.00;;;;;24.30;54.41;101006.94;2105623;28;47370;-64
2022/08/05 00:54:13;;;;;;;;;3.00;3.00;;;;;24.32;54.43;100999.56;2106313;27;47212;-65
2022/08/05 00:55:13;;;;;;;;;3.80;3.80;;;;;24.34;54.34;101007.56;2105143;28;47326;-64
2022/08/05 00:56:15;;;;;;;;;5.00;4.00;;;;;24.34;54.26;101019.28;2105381;28;47501;-64
2022/08/05 00:57:16;;;;;;;;;4.40;4.40;;;;;24.34;54.36;101013.00;2105953;27;48114;-64
2022/08/05 00:58:17;;;;;;;;;2.00;1.75;;;;;24.33;54.19;101000.41;2106048;27;47195;-64
2022/08/05 00:59:17;;;;;;;;;3.40;3.40;;;;;24.31;54.07;100989.69;2105754;27;47947;-64
2022/08/05 01:00:18;;;;;;;;;2.25;2.25;;;;;24.32;54.65;100999.56;2105772;27;47693;-64
2022/08/05 01:01:18;;;;;;;;;4.75;4.00;;;;;24.33;54.20;101006.72;2105913;27;47073;-64
2022/08/05 01:02:19;;;;;;;;;3.00;3.00;;;;;24.33;53.95;101017.56;2113808;27;47125;-64
2022/08/05 01:03:19;;;;;;;;;4.00;4.00;;;;;24.34;54.41;101064.53;2104808;28;47813;-65
2022/08/05 01:04:20;;;;;;;;;2.75;2.75;;;;;24.32;54.88;101108.06;2104920;28;47586;-64
2022/08/05 01:05:20;;;;;;;;;2.75;2.75;;;;;24.31;54.37;101129.88;2105388;28;48404;-64
2022/08/05 01:06:21;;;;;;;;;3.75;3.00;;;;;24.26;54.12;101113.88;2105936;27;47349;-64
2022/08/05 01:07:21;;;;;;;;;3.75;3.75;;;;;24.25;53.90;101087.72;2105836;28;47417;-64
2022/08/05 01:08:22;;;;;;;;;3.25;2.75;;;;;24.24;54.20;101093.28;2105424;28;47619;-64
2022/08/05 01:09:22;;;;;;;;;3.00;3.00;;;;;24.21;54.04;101093.50;2105469;28;46906;-65
2022/08/05 01:10:29;;;;;;;;;2.75;2.75;;;;;24.18;53.75;101078.31;2105402;28;47638;-65
2022/08/05 01:11:34;;;;;;;;;3.20;3.20;;;;;24.16;54.03;101045.03;2105775;27;47515;-63
2022/08/05 01:12:36;;;;;;;;;2.60;2.60;;;;;24.14;54.33;101009.03;2105644;27;48042;-66
2022/08/05 01:13:58;;;;;;;;;3.00;3.00;;;;;24.14;54.73;100976.50;2113690;27;47356;-64
2022/08/05 01:15:06;;;;;;;;;3.00;3.00;;;;;24.13;53.80;100942.19;2104366;28;47416;-64
2022/08/05 01:16:15;;;;;;;;;3.00;3.00;;;;;24.10;54.63;100944.28;2105558;28;47322;-64
2022/08/05 01:17:27;;;;;;;;;3.60;3.60;;;;;24.06;53.96;100960.78;2105833;27;47660;-65
2022/08/05 01:18:35;;;;;;;;;3.00;3.00;;;;;24.05;54.14;100998.84;2097617;28;47128;-64
2022/08/05 01:19:42;;;;;;;;;3.60;3.60;;;;;24.02;55.09;101062.31;2104038;28;47578;-64
2022/08/05 01:21:06;;;;;;;;;4.40;4.40;;;;;23.95;54.62;101085.41;2105832;27;47529;-65
2022/08/05 01:22:47;;;;;;;;;2.00;2.00;;;;;23.91;55.03;101075.78;2105869;27;47814;-64
2022/08/05 01:24:09;;;;;;;;;3.40;3.40;;;;;23.88;54.84;101042.56;2105567;28;47516;-63
2022/08/05 01:25:21;;;;;;;;;2.80;2.80;;;;;23.87;54.99;101057.09;2105693;27;47405;-64
2022/08/05 01:26:54;;;;;;;;;2.00;2.00;;;;;23.83;55.10;101093.53;2105611;28;47594;-64
2022/08/05 01:28:23;;;;;;;;;2.40;1.60;;;;;23.78;54.94;101091.19;2096568;28;47755;-64
2022/08/05 01:29:33;;;;;;;;;5.00;3.00;;;;;23.71;55.34;101090.72;2063193;28;48028;-67
2022/08/05 01:30:38;;;;;;;;;3.00;3.00;;;;;23.70;55.46;101080.00;2054715;28;47542;-64
2022/08/05 01:31:48;;;;;;;;;6.40;3.00;;;;;23.69;55.78;101053.88;2056003;28;47421;-65
2022/08/05 01:32:50;;;;;;;;;3.00;3.00;;;;;23.70;55.51;101039.34;2062762;28;47625;-64
2022/08/05 01:33:53;;;;;;;;;3.80;2.60;;;;;23.72;55.45;101015.72;2063463;28;47621;-64
2022/08/05 01:34:59;;;;;;;;;2.60;2.60;;;;;23.71;54.96;101000.44;2063404;28;47725;-64
2022/08/05 01:36:05;;;;;;;;;2.40;2.40;;;;;23.73;55.53;100995.75;2063344;28;47442;-64
2022/08/05 01:37:18;;;;;;;;;4.40;3.00;;;;;23.75;55.01;101004.66;2063400;28;47261;-65
2022/08/05 01:38:21;;;;;;;;;3.40;3.40;;;;;23.75;55.36;101010.06;2063671;28;47773;-64
2022/08/05 01:39:23;;;;;;;;;1.80;1.80;;;;;23.78;55.42;101015.28;2054368;28;46480;-65
2022/08/05 01:40:28;;;;;;;;;4.40;2.40;;;;;23.82;55.26;101000.53;2054786;28;47723;-64
2022/08/05 01:41:33;;;;;;;;;2.80;2.80;;;;;23.83;54.83;100960.75;2063257;28;47933;-64
2022/08/05 01:42:36;;;;;;;;;3.80;3.80;;;;;23.81;54.99;100936.47;2063765;28;48165;-65
2022/08/05 01:43:37;;;;;;;;;3.40;3.40;;;;;23.81;54.82;100939.19;2063688;28;47901;-64
2022/08/05 01:44:38;;;;;;;;;3.00;3.00;;;;;23.80;54.77;100939.28;2063357;28;47469;-64
2022/08/05 01:45:39;;;;;;;;;2.50;2.50;;;;;23.77;54.89;100932.25;2054917;28;47495;-64
2022/08/05 01:46:41;;;;;;;;;4.25;4.25;;;;;23.73;54.98;100928.88;2055257;28;47887;-63
2022/08/05 01:47:43;;;;;;;;;1.60;1.60;;;;;23.73;55.27;100937.00;2063654;28;47845;-65
2022/08/05 01:48:47;;;;;;;;;2.40;2.40;;;;;23.72;54.67;100956.09;2063054;28;47743;-64
2022/08/05 01:49:50;;;;;;;;;4.20;4.20;;;;;23.73;55.59;100968.66;2063170;28;47525;-66
2022/08/05 01:50:53;;;;;;;;;4.00;3.40;;;;;23.70;55.86;100991.44;2063088;28;47794;-65
2022/08/05 01:51:59;;;;;;;;;2.60;2.60;;;;;23.69;55.90;101007.81;2063183;28;47556;-65
2022/08/05 01:53:05;;;;;;;;;2.80;2.80;;;;;23.67;55.80;100998.94;2062828;28;47419;-64
2022/08/05 01:54:07;;;;;;;;;3.00;3.00;;;;;23.68;56.00;100995.25;2055488;28;47684;-64
2022/08/05 01:55:12;;;;;;;;;2.00;2.00;;;;;23.69;55.72;100986.13;2055478;28;47729;-64
2022/08/05 01:56:14;;;;;;;;;2.80;2.80;;;;;23.72;55.83;100992.19;2047132;28;47615;-64
2022/08/05 01:57:24;;;;;;;;;4.80;3.60;;;;;23.76;55.38;101009.13;2046332;28;48120;-64
2022/08/05 01:58:27;;;;;;;;;2.00;2.00;;;;;23.78;55.42;101001.75;2063385;28;47619;-63
2022/08/05 01:59:32;;;;;;;;;2.40;2.40;;;;;23.80;55.34;100994.34;2062902;28;47832;-64
2022/08/05 02:00:37;;;;;;;;;2.60;2.60;;;;;23.84;55.76;100995.84;2062764;28;47714;-63
2022/08/05 02:01:39;;;;;;;;;3.60;2.00;;;;;23.85;55.13;100996.72;2063523;28;47624;-64
2022/08/05 02:03:02;;;;;;;;;5.00;3.80;;;;;23.84;55.37;100985.00;2054809;28;47860;-65
2022/08/05 02:04:05;;;;;;;;;3.00;3.00;;;;;23.86;55.64;100968.63;2055041;28;47060;-65
2022/08/05 02:05:09;;;;;;;;;3.00;3.00;;;;;23.85;55.20;100962.34;2062316;28;46278;-65
2022/08/05 02:06:11;;;;;;;;;3.60;3.20;;;;;23.88;55.40;100950.41;2076691;28;47822;-65
2022/08/05 02:07:11;;;;;;;;;5.40;3.00;;;;;23.87;55.50;100954.09;2106072;27;47477;-65
2022/08/05 02:08:12;;;;;;;;;3.75;2.50;;;;;23.85;55.26;100965.06;2105943;27;47437;-63
2022/08/05 02:09:12;;;;;;;;;2.25;2.25;;;;;23.85;55.54;100981.31;2105982;27;47601;-64
2022/08/05 02:10:13;;;;;;;;;2.00;2.00;;;;;23.82;54.96;100991.53;2105206;27;47781;-64
2022/08/05 02:11:16;;;;;;;;;1.75;1.75;;;;;23.79;55.07;100995.34;2105484;27;47295;-64
2022/08/05 02:12:36;;;;;;;;;2.20;2.20;;;;;23.76;54.89;100998.28;2105409;27;47708;-65
2022/08/05 02:13:48;;;;;;;;;3.60;3.60;;;;;23.71;54.80;100993.16;2097534;28;48092;-65
2022/08/05 02:14:59;;;;;;;;;1.80;1.80;;;;;23.72;54.68;100977.78;2102965;28;47717;-65
2022/08/05 02:16:09;;;;;;;;;2.00;2.00;;;;;23.73;55.37;100990.34;2104618;28;47864;-64
2022/08/05 02:17:15;;;;;;;;;3.00;3.00;;;;;23.71;55.55;101013.97;2112481;27;47618;-65
2022/08/05 02:18:38;;;;;;;;;2.80;2.00;;;;;23.67;55.32;101021.47;2111243;27;47542;-65
2022/08/05 02:19:47;;;;;;;;;3.00;3.00;;;;;23.63;55.79;101024.50;2105362;28;47540;-65
2022/08/05 02:21:02;;;;;;;;;4.20;4.20;;;;;23.58;56.47;101019.41;2105215;27;47733;-65
2022/08/05 02:22:16;;;;;;;;;4.40;4.00;;;;;23.56;56.46;101015.06;2105611;27;47769;-65
2022/08/05 02:23:21;;;;;;;;;2.40;2.40;;;;;23.55;56.18;101006.06;2105296;27;47374;-65
2022/08/05 02:24:26;;;;;;;;;4.00;2.60;;;;;23.57;55.68;101009.53;2105502;27;47914;-65
2022/08/05 02:25:31;;;;;;;;;6.80;3.60;;;;;23.58;56.37;100997.75;2105323;27;48014;-65
2022/08/05 02:26:44;;;;;;;;;4.80;4.80;;;;;23.59;56.54;100995.91;2105420;27;47602;-65
2022/08/05 02:27:47;;;;;;;;;4.00;4.00;;;;;23.59;56.71;101001.31;2105722;27;47747;-63
2022/08/05 02:28:50;;;;;;;;;4.80;4.00;;;;;23.58;56.65;101011.28;2105217;27;47848;-64
2022/08/05 02:29:52;;;;;;;;;3.00;3.00;;;;;23.54;56.18;101015.16;2113526;27;47904;-64
2022/08/05 02:30:57;;;;;;;;;3.20;3.20;;;;;23.51;56.30;101020.81;2104717;28;47305;-64
2022/08/05 02:31:59;;;;;;;;;5.00;4.00;;;;;23.47;55.87;101025.56;2097187;28;47413;-63
2022/08/05 02:33:01;;;;;;;;;2.60;2.60;;;;;23.45;55.99;101032.06;2105289;27;47488;-64
2022/08/05 02:34:05;;;;;;;;;4.20;3.60;;;;;23.42;56.33;101043.13;2105281;27;47372;-65
2022/08/05 02:35:11;;;;;;;;;4.00;4.00;;;;;23.40;56.29;101040.53;2105251;27;47816;-64
2022/08/05 02:36:16;;;;;;;;;4.20;2.80;;;;;23.37;56.23;101032.59;2103743;28;47580;-64
2022/08/05 02:37:18;;;;;;;;;5.20;5.20;;;;;23.37;56.25;101032.59;2104971;27;47346;-64
2022/08/05 02:38:20;;;;;;;;;2.40;2.40;;;;;23.38;56.15;101034.34;2105571;27;47347;-64
2022/08/05 02:39:21;;;;;;;;;3.40;3.40;;;;;23.42;56.11;101035.84;2104599;28;47763;-65
2022/08/05 02:40:24;;;;;;;;;2.00;2.00;;;;;23.41;55.51;101039.53;2104708;28;47483;-64
2022/08/05 02:41:26;;;;;;;;;1.40;0.40;;;;;23.41;56.23;101038.69;2104501;28;47526;-64
2022/08/05 02:42:28;;;;;;;;;3.00;3.00;;;;;23.40;55.72;101034.25;2104676;28;47820;-64
2022/08/05 02:43:31;;;;;;;;;4.00;4.00;;;;;23.43;55.72;101044.84;2105134;27;47767;-64
2022/08/05 02:44:35;;;;;;;;;4.00;3.20;;;;;23.44;55.42;101038.47;2105045;27;47790;-65
2022/08/05 02:45:37;;;;;;;;;3.00;3.00;;;;;23.47;55.29;101030.09;2105261;27;47521;-65
2022/08/05 02:46:39;;;;;;;;;5.40;5.40;;;;;23.46;55.43;101029.25;2105285;27;48468;-64
2022/08/05 02:47:42;;;;;;;;;2.00;2.00;;;;;23.47;55.02;101030.97;2104755;27;47508;-64
2022/08/05 02:48:45;;;;;;;;;2.60;2.60;;;;;23.45;54.73;101041.06;2106347;27;47655;-65
2022/08/05 02:49:46;;;;;;;;;5.00;3.40;;;;;23.41;54.89;101036.84;2105616;27;47779;-65
2022/08/05 02:50:50;;;;;;;;;2.80;2.20;;;;;23.37;55.04;101018.19;2105261;27;47395;-65
2022/08/05 02:51:52;;;;;;;;;2.00;2.00;;;;;23.35;55.47;100974.09;2105049;27;47592;-64
2022/08/05 02:52:53;;;;;;;;;2.80;2.80;;;;;23.34;55.46;100938.03;2105351;27;47823;-63
2022/08/05 02:53:54;;;;;;;;;3.25;2.25;;;;;23.34;55.59;100916.34;2098918;28;47312;-65
2022/08/05 02:54:54;;;;;;;;;2.00;2.00;;;;;23.36;55.56;100930.66;2099778;28;47858;-64
2022/08/05 02:55:55;;;;;;;;;2.00;2.00;;;;;23.36;55.31;100943.31;2105462;27;45553;-65
2022/08/05 02:56:57;;;;;;;;;3.00;3.00;;;;;23.35;55.59;100950.59;2105017;28;47944;-65
2022/08/05 02:57:59;;;;;;;;;1.40;1.40;;;;;23.35;55.61;100964.13;2105296;27;47810;-65
2022/08/05 02:59:00;;;;;;;;;4.00;4.00;;;;;23.34;55.50;100962.41;2105218;27;47499;-64
2022/08/05 03:00:01;;;;;;;;;1.00;1.00;;;;;23.33;56.00;100966.09;2105023;27;47888;-64
2022/08/05 03:01:02;;;;;;;;;4.50;3.25;;;;;23.34;56.05;100961.53;2105716;27;48020;-63
2022/08/05 03:02:03;;;;;;;;;4.40;4.40;;;;;23.36;56.29;100957.72;2104890;28;47194;-64
2022/08/05 03:03:05;;;;;;;;;1.60;1.60;;;;;23.38;56.51;100953.09;2104429;28;47734;-64
2022/08/05 03:04:09;;;;;;;;;3.80;3.80;;;;;23.39;56.38;100952.13;2105229;27;47600;-64
2022/08/05 03:05:11;;;;;;;;;2.00;2.00;;;;;23.39;56.09;100962.97;2104939;27;48002;-64
2022/08/05 03:06:12;;;;;;;;;2.60;2.60;;;;;23.39;55.38;100984.63;2105132;27;48069;-64
2022/08/05 03:07:12;;;;;;;;;3.00;3.00;;;;;23.38;55.83;100988.31;2104338;28;45774;-64
2022/08/05 03:08:14;;;;;;;;;3.50;2.75;;;;;23.35;55.89;100999.34;2104299;28;47367;-64
2022/08/05 03:09:15;;;;;;;;;3.00;3.00;;;;;23.33;55.71;101005.84;2105013;27;47398;-64
2022/08/05 03:10:15;;;;;;;;;2.00;2.00;;;;;23.32;56.02;101013.09;2105136;27;47248;-65
2022/08/05 03:11:17;;;;;;;;;2.00;2.00;;;;;23.30;55.35;101012.34;2105216;27;47795;-64
2022/08/05 03:12:30;;;;;;;;;3.40;3.20;;;;;23.30;55.55;101023.19;2105266;27;47602;-64
2022/08/05 03:13:30;;;;;;;;;3.60;3.60;;;;;23.30;55.19;101031.31;2105002;27;47466;-63
2022/08/05 03:14:31;;;;;;;;;3.50;3.25;;;;;23.28;55.49;101032.38;2104997;27;47766;-65
2022/08/05 03:15:31;;;;;;;;;4.75;4.00;;;;;23.27;55.73;101033.38;2105008;27;47321;-65
2022/08/05 03:16:32;;;;;;;;;3.00;3.00;;;;;23.26;55.30;101032.50;2105177;27;46372;-65
2022/08/05 03:17:33;;;;;;;;;2.75;2.75;;;;;23.26;55.58;101032.50;2103525;28;47795;-65
2022/08/05 03:18:33;;;;;;;;;1.40;1.00;;;;;23.26;55.22;101046.03;2104497;28;47725;-65
2022/08/05 03:19:33;;;;;;;;;4.25;4.00;;;;;23.25;55.48;101033.47;2103539;28;47218;-64
2022/08/05 03:20:34;;;;;;;;;3.25;2.25;;;;;23.24;55.63;101033.56;2105163;27;47318;-64
2022/08/05 03:21:34;;;;;;;;;2.00;2.00;;;;;23.24;55.63;101020.00;2104963;27;47537;-63
2022/08/05 03:22:35;;;;;;;;;4.25;3.25;;;;;23.26;55.56;101021.66;2104965;27;47728;-66
2022/08/05 03:23:38;;;;;;;;;2.00;2.00;;;;;23.27;54.93;101006.28;2105045;27;47780;-64
2022/08/05 03:24:40;;;;;;;;;3.00;3.00;;;;;23.26;54.48;101001.84;2104910;27;47741;-65
2022/08/05 03:25:41;;;;;;;;;3.00;3.00;;;;;23.26;54.71;100999.13;2103163;27;47542;-65
2022/08/05 03:26:41;;;;;;;;;2.25;2.25;;;;;23.24;54.60;100995.66;2095345;28;47496;-65
2022/08/05 03:27:42;;;;;;;;;1.75;1.75;;;;;23.23;54.25;100996.63;2103231;28;47562;-64
2022/08/05 03:28:42;;;;;;;;;2.50;2.50;;;;;23.21;54.37;100991.31;2104893;28;47860;-66
2022/08/05 03:29:43;;;;;;;;;2.75;2.75;;;;;23.22;54.31;100998.47;2104836;28;47541;-66
2022/08/05 03:30:43;;;;;;;;;4.50;2.00;;;;;23.22;55.01;101012.00;2104943;27;47848;-66
2022/08/05 03:31:44;;;;;;;;;3.25;3.25;;;;;23.23;54.71;101007.44;2104934;27;47468;-65
2022/08/05 03:32:45;;;;;;;;;1.80;1.80;;;;;23.21;54.76;101007.56;2105457;27;47716;-65
2022/08/05 03:33:46;;;;;;;;;2.00;2.00;;;;;23.21;54.36;101018.41;2104803;27;47084;-65
2022/08/05 03:34:47;;;;;;;;;2.00;2.00;;;;;23.21;54.75;101018.41;2105393;27;47224;-65
2022/08/05 03:35:49;;;;;;;;;2.25;2.25;;;;;23.22;54.43;101019.25;2105058;27;47511;-65
2022/08/05 03:36:50;;;;;;;;;1.00;1.00;;;;;23.19;54.20;101021.22;2105200;27;47046;-66
2022/08/05 03:37:50;;;;;;;;;2.00;2.00;;;;;23.16;54.01;101018.72;2103509;28;47292;-66
2022/08/05 03:38:51;;;;;;;;;4.25;2.00;;;;;23.16;54.77;101012.44;2103803;27;47677;-67
2022/08/05 03:39:57;;;;;;;;;1.00;1.00;;;;;23.16;54.74;101007.03;2104660;28;47316;-66
2022/08/05 03:40:57;;;;;;;;;2.00;2.00;;;;;23.16;55.02;101001.63;2104676;28;47404;-65
2022/08/05 03:41:57;;;;;;;;;2.00;2.00;;;;;23.17;54.58;101011.47;2104475;27;47769;-67
2022/08/05 03:42:59;;;;;;;;;2.75;2.75;;;;;23.18;55.39;101007.78;2105536;27;47603;-65
2022/08/05 03:43:59;;;;;;;;;1.40;1.40;;;;;23.20;55.25;101022.06;2104779;27;47591;-64
2022/08/05 03:45:00;;;;;;;;;2.00;2.00;;;;;23.17;55.10;101022.31;2104971;27;47453;-64
2022/08/05 03:46:01;;;;;;;;;1.80;1.80;;;;;23.16;55.95;101024.13;2112716;27;47699;-64
2022/08/05 03:47:01;;;;;;;;;3.00;3.00;;;;;23.14;55.09;101028.81;2112949;27;46992;-65
2022/08/05 03:48:03;;;;;;;;;3.75;3.75;;;;;23.10;54.78;101031.81;2104363;28;47439;-64
2022/08/05 03:49:04;;;;;;;;;1.40;1.40;;;;;23.09;54.52;101030.06;2104241;28;47406;-64
2022/08/05 03:50:04;;;;;;;;;3.00;2.25;;;;;23.07;54.96;101030.19;2104870;27;47781;-65
2022/08/05 03:51:29;;;;;;;;;3.00;1.00;;;;;23.05;54.84;101028.56;2104885;28;47132;-66
2022/08/05 03:52:34;;;;;;;;;2.00;2.00;;;;;23.04;54.82;101027.69;2106452;27;48296;-66
2022/08/05 03:53:38;;;;;;;;;2.00;2.00;;;;;23.02;54.97;101021.53;2110179;27;47636;-64
2022/08/05 03:54:49;;;;;;;;;4.00;2.75;;;;;23.00;54.05;101022.59;2096662;28;47504;-65
2022/08/05 03:55:56;;;;;;;;;4.25;4.25;;;;;22.98;54.56;101028.09;2106247;27;47562;-65
2022/08/05 03:56:58;;;;;;;;;5.00;3.40;;;;;22.99;55.01;101020.84;2106171;28;47696;-66
2022/08/05 03:58:00;;;;;;;;;1.80;1.80;;;;;22.98;54.41;101022.69;2105591;28;47861;-64
2022/08/05 03:59:12;;;;;;;;;2.25;2.25;;;;;23.00;54.44;101019.91;2106310;27;47705;-65
2022/08/05 04:00:14;;;;;;;;;2.80;2.80;;;;;23.00;54.46;101031.59;2114127;27;47045;-65
2022/08/05 04:01:18;;;;;;;;;1.25;1.25;;;;;23.03;54.97;101034.09;2114261;27;47837;-65
2022/08/05 04:02:20;;;;;;;;;2.00;2.00;;;;;23.05;55.00;101029.44;2098047;28;47955;-65
2022/08/05 04:03:21;;;;;;;;;1.00;1.00;;;;;23.05;53.98;101032.13;2103969;28;47771;-64
2022/08/05 04:04:23;;;;;;;;;2.00;2.00;;;;;23.05;53.77;101024.00;2106255;27;47232;-66
2022/08/05 04:05:27;;;;;;;;;2.00;2.00;;;;;23.04;53.59;101021.41;2105682;28;47162;-65
2022/08/05 04:06:28;;;;;;;;;2.75;2.00;;;;;23.06;53.95;101024.88;2096651;28;47587;-67
2022/08/05 04:07:29;;;;;;;;;3.67;2.67;;;;;;;;2097095;28;47278;-64
2022/08/05 04:08:31;;;;;;;;;2.75;2.75;;;;;23.10;54.01;101008.31;2105937;28;47467;-65
2022/08/05 04:09:32;;;;;;;;;2.25;1.75;;;;;23.13;53.89;101004.53;2106088;27;47462;-65
2022/08/05 04:10:33;;;;;;;;;0.33;0.33;;;;;23.13;54.41;101010.81;2106320;27;47937;-65
2022/08/05 04:11:35;;;;;;;;;3.00;1.67;;;;;23.14;54.09;101009.84;2106367;27;45966;-65
2022/08/05 04:12:36;;;;;;;;;3.25;3.25;;;;;23.13;54.28;101012.66;2103741;28;47947;-65
2022/08/05 04:13:40;;;;;;;;;1.75;1.75;;;;;23.13;54.35;101007.25;2105095;28;47373;-64
2022/08/05 04:14:42;;;;;;;;;2.60;2.00;;;;;23.14;54.79;101000.84;2105835;27;47446;-64
2022/08/05 04:15:45;;;;;;;;;2.75;2.75;;;;;23.15;54.81;101016.13;2114565;27;48250;-65
2022/08/05 04:16:46;;;;;;;;;2.60;2.60;;;;;23.14;54.51;101015.25;2114095;27;47914;-65
2022/08/05 04:17:47;;;;;;;;;4.80;4.80;;;;;23.13;54.20;101013.53;2105971;27;47672;-65
2022/08/05 04:18:48;;;;;;;;;2.60;2.60;;;;;23.12;54.78;101011.81;2106116;27;47638;-65
2022/08/05 04:19:48;;;;;;;;;2.00;1.00;;;;;23.13;54.39;101007.25;2105285;28;47934;-65
2022/08/05 04:20:53;;;;;;;;;4.00;2.75;;;;;23.11;53.67;101014.59;2106475;27;47414;-65
2022/08/05 04:21:54;;;;;;;;;2.50;2.50;;;;;23.10;54.43;101020.97;2106640;27;47946;-64
2022/08/05 04:22:54;;;;;;;;;1.00;1.00;;;;;23.09;54.93;101019.25;2106027;27;47667;-65
2022/08/05 04:23:57;;;;;;;;;3.25;3.25;;;;;;;;2106026;27;47453;-66
2022/08/05 04:24:57;;;;;;;;;2.50;2.00;;;;;23.06;54.14;101027.59;2106256;27;47567;-64
2022/08/05 04:25:57;;;;;;;;;5.33;2.67;;;;;23.04;54.22;101027.69;2106190;27;47161;-64
2022/08/05 04:26:58;;;;;;;;;5.33;2.33;;;;;23.05;53.96;101031.25;2106402;27;47274;-64
2022/08/05 04:27:58;;;;;;;;;2.33;2.33;;;;;23.03;54.63;101023.25;2106054;27;47723;-64
2022/08/05 04:28:59;;;;;;;;;2.75;2.75;;;;;23.01;54.36;101017.09;2106157;27;45680;-64
2022/08/05 04:30:00;;;;;;;;;2.00;2.00;;;;;23.00;54.41;101028.88;2105346;28;46984;-65
2022/08/05 04:31:00;;;;;;;;;2.75;2.25;;;;;22.99;54.37;101021.72;2105457;28;47580;-64
2022/08/05 04:32:01;;;;;;;;;2.25;1.25;;;;;22.98;54.78;101017.28;2105905;28;46477;-65
2022/08/05 04:33:01;;;;;;;;;3.50;3.50;;;;;22.97;54.47;101018.25;2106524;27;47535;-65
2022/08/05 04:34:02;;;;;;;;;3.00;3.00;;;;;22.97;54.54;101014.66;2105313;28;47655;-65
2022/08/05 04:35:03;;;;;;;;;2.25;2.00;;;;;22.98;54.87;101016.41;2097561;28;47370;-65
2022/08/05 04:36:03;;;;;;;;;4.00;3.00;;;;;23.00;54.98;101011.78;2097107;28;47038;-66
2022/08/05 04:37:04;;;;;;;;;3.25;3.00;;;;;23.00;53.83;101014.50;2097157;28;47931;-65
2022/08/05 04:38:04;;;;;;;;;1.75;1.75;;;;;22.99;53.96;101018.13;2105419;28;47597;-63
2022/08/05 04:39:05;;;;;;;;;3.00;3.00;;;;;22.99;53.74;101007.31;2105979;27;47935;-64
2022/08/05 04:40:06;;;;;;;;;3.00;1.00;;;;;23.00;54.36;101009.94;2105324;28;47504;-65
2022/08/05 04:41:06;;;;;;;;;3.00;3.00;;;;;23.02;53.77;101013.41;2105375;28;47464;-65
2022/08/05 04:42:07;;;;;;;;;1.75;1.75;;;;;23.01;53.91;101017.09;2105880;27;47428;-65
2022/08/05 04:43:08;;;;;;;;;3.25;3.25;;;;;23.01;54.42;101016.22;2106060;27;46897;-65
2022/08/05 04:44:08;;;;;;;;;4.00;2.25;;;;;23.01;54.50;101024.34;2106124;27;47045;-65
2022/08/05 04:45:09;;;;;;;;;3.33;3.33;;;;;23.00;54.59;101022.59;2106333;27;47277;-64
2022/08/05 04:46:09;;;;;;;;;2.00;2.00;;;;;22.98;54.03;101028.09;2106358;27;47843;-64
2022/08/05 04:47:10;;;;;;;;;3.67;2.00;;;;;22.98;54.52;101032.66;2105890;27;47662;-65
2022/08/05 04:48:12;;;;;;;;;3.33;3.33;;;;;22.98;54.49;101025.38;2105804;27;47830;-64
2022/08/05 04:49:13;;;;;;;;;2.25;2.25;;;;;22.99;54.53;101027.13;2105960;27;47423;-64
2022/08/05 04:50:13;;;;;;;;;4.00;4.00;;;;;23.00;54.70;101023.47;2106058;28;47623;-65
2022/08/05 04:51:14;;;;;;;;;2.00;2.00;;;;;23.03;54.74;101033.22;2106445;27;47279;-64
2022/08/05 04:52:15;;;;;;;;;4.00;4.00;;;;;23.04;54.89;101027.69;2105795;27;47222;-64
2022/08/05 04:53:17;;;;;;;;;3.00;3.00;;;;;23.04;53.72;101032.25;2105704;27;47435;-64
2022/08/05 04:54:18;;;;;;;;;5.40;5.40;;;;;23.03;54.33;101031.38;2105963;27;46824;-64